Terminal Aerodrome Forecast
Issued by NWS

Home | Current Version | Previous Version | Text Only | Print | Product List | Glossary On
Versions: 1 2 3 4 5 6 7 8 9 10 11 12 13 14 15 16 17 18
451
FTUS44 KLZK 232004 AAA
TAFBPK
TAF AMD
KBPK 232004Z 2320/2418 15008G16KT P6SM BKN050 BKN250
     FM240100 16010G18KT P6SM SCT050 BKN250 WS020/19045KT
     FM241400 17012G22KT P6SM VCSH BKN050 OVC150=

USA.gov is the U.S. government's official web portal to all federal, state and local government web resources and services.